KDTN/DTN METAR and TAF weather

Enter ICAO airport designator
Station Type Date Time Source
KDTN METAR 2019/12/08 14:06 UTC NOAA

KDTN 081406Z 16009KT 3SM BR OVC003 09/08 A3013 RMK AO2 T00890078


Station Type Date Time Source
KDTN Decoded METAR 2019/12/08 14:06 UTC NOAA

SHREVEPORT DOWNTOWN AIRPORT, LA, United States (KDTN) 32-32N 093-45W 53M
Dec 08, 2019 - 09:06 AM EST / 2019.12.08 1406 UTC
Wind: from the SSE (160 degrees) at 10 MPH (9 KT):0
Visibility: 3 mile(s):0
Sky conditions: overcast
Weather: mist
Temperature: 48.0 F (8.9 C)
Dew Point: 46.0 F (7.8 C)
Relative Humidity: 92%
Pressure (altimeter): 30.13 in. Hg (1020 hPa)
ob: KDTN 081406Z 16009KT 3SM BR OVC003 09/08 A3013 RMK AO2 T00890078
cycle: 14

Station Type Date Time Source
KDTN TAF UTC NOAA

Error!

Example: see airport list